NZWN/WLG METAR and TAF weather

Enter ICAO airport designator
Station Type Date Time Source
NZWN METAR 2019/08/24 08:00 UTC NOAA

NZWN 240800Z AUTO 35002KT 9999 NCD 08/06 Q1005 NOSIG


Station Type Date Time Source
NZWN Decoded METAR 2019/08/24 08:00 UTC NOAA

Station name not available
Aug 24, 2019 - 04:00 AM EDT / 2019.08.24 0800 UTC
Wind: from the N (350 degrees) at 2 MPH (2 KT):0
Visibility: greater than 7 mile(s):0
Temperature: 46 F (8 C)
Dew Point: 42 F (6 C)
Relative Humidity: 87%
Pressure (altimeter): 29.68 in. Hg (1005 hPa)
ob: NZWN 240800Z AUTO 35002KT 9999 NCD 08/06 Q1005 NOSIG
cycle: 8

Station Type Date Time Source
NZWN TAF 2019/08/24 06:24 UTC NOAA

TAF NZWN 240521Z 2406/2506 18008KT 9999 FEW020 SCT030
FM240700 36010KT 9999 FEW030
BECMG 2420/2422 35015G25KT

Example: see airport list